Kingsbury, Indiana
Current Conditions -  °F | °C
As of 1:55 PM on Friday 19 Dec 2014 (Local Time) from KPPO Reporting Station
Overcast Overcast  
Wind Chill: 29°   Ceiling: 1300
Heat Index: 33°   Visibility: 10mi
Dew Point: 28°   Wind: 5mph
Humidity: 84%   Direction: 310°NW
Pressure: 30.25"   Gusts: NA
Location:  41.53°N, 86.7°W
Report Text: KPPO 191955Z AUTO 31004KT 10SM OVC013 01/M02 A3025 RMK AO2 T00051020
Loading
Personal Weather Stations






























Interactive Weather Map New forecast layout! Learn more

10-Day Weather Forecast

Advertisements
Track Severe Weather on mobile